sensor_id;sensor_type;location;lat;lon;timestamp;pressure;altitude;pressure_sealevel;temperature;humidity
39177;BME280;24904;52.208;21.192;2024-01-15T00:01:45;98369.35;;;2.30;82.73
39177;BME280;24904;52.208;21.192;2024-01-15T00:06:50;98364.51;;;2.33;82.79
39177;BME280;24904;52.208;21.192;2024-01-15T00:11:55;98356.09;;;2.35;82.65
39177;BME280;24904;52.208;21.192;2024-01-15T00:17:00;98348.98;;;2.36;82.44
39177;BME280;24904;52.208;21.192;2024-01-15T00:22:05;98336.98;;;2.36;82.62
39177;BME280;24904;52.208;21.192;2024-01-15T00:27:10;98335.20;;;2.41;82.72
39177;BME280;24904;52.208;21.192;2024-01-15T00:32:15;98324.73;;;2.40;82.47
39177;BME280;24904;52.208;21.192;2024-01-15T00:37:20;98311.23;;;2.42;82.45
39177;BME280;24904;52.208;21.192;2024-01-15T00:42:25;98303.80;;;2.43;82.32
39177;BME280;24904;52.208;21.192;2024-01-15T00:47:30;98295.06;;;2.43;82.51
39177;BME280;24904;52.208;21.192;2024-01-15T00:52:35;98289.08;;;2.41;82.23
39177;BME280;24904;52.208;21.192;2024-01-15T00:57:41;98282.05;;;2.43;82.15
39177;BME280;24904;52.208;21.192;2024-01-15T01:02:46;98272.95;;;2.46;82.30
39177;BME280;24904;52.208;21.192;2024-01-15T01:07:51;98262.67;;;2.48;82.10
39177;BME280;24904;52.208;21.192;2024-01-15T01:12:56;98257.57;;;2.48;81.86
39177;BME280;24904;52.208;21.192;2024-01-15T01:18:01;98248.33;;;2.45;82.35
39177;BME280;24904;52.208;21.192;2024-01-15T01:23:06;98239.27;;;2.35;82.49
39177;BME280;24904;52.208;21.192;2024-01-15T01:28:11;98234.81;;;2.31;82.41
39177;BME280;24904;52.208;21.192;2024-01-15T01:33:16;98235.59;;;2.31;82.71
39177;BME280;24904;52.208;21.192;2024-01-15T01:38:21;98229.86;;;2.30;82.57
39177;BME280;24904;52.208;21.192;2024-01-15T01:43:26;98222.19;;;2.28;82.93
39177;BME280;24904;52.208;21.192;2024-01-15T01:48:31;98217.56;;;2.23;82.81
39177;BME280;24904;52.208;21.192;2024-01-15T01:53:38;98216.08;;;2.21;82.98
39177;BME280;24904;52.208;21.192;2024-01-15T01:58:43;98211.74;;;2.13;83.13
39177;BME280;24904;52.208;21.192;2024-01-15T02:03:49;98199.00;;;2.07;83.25
39177;BME280;24904;52.208;21.192;2024-01-15T02:08:54;98197.08;;;2.08;83.40
39177;BME280;24904;52.208;21.192;2024-01-15T02:14:00;98195.75;;;2.07;83.36
39177;BME280;24904;52.208;21.192;2024-01-15T02:19:05;98184.61;;;2.06;83.35
39177;BME280;24904;52.208;21.192;2024-01-15T02:24:10;98178.45;;;2.09;83.67
39177;BME280;24904;52.208;21.192;2024-01-15T02:29:15;98173.95;;;2.15;83.33
39177;BME280;24904;52.208;21.192;2024-01-15T02:34:20;98164.73;;;2.14;83.37
39177;BME280;24904;52.208;21.192;2024-01-15T02:39:25;98164.44;;;2.16;83.40
39177;BME280;24904;52.208;21.192;2024-01-15T02:44:30;98157.42;;;2.18;83.19
39177;BME280;24904;52.208;21.192;2024-01-15T02:49:35;98155.11;;;2.20;82.86
39177;BME280;24904;52.208;21.192;2024-01-15T02:54:40;98141.13;;;2.22;82.98
39177;BME280;24904;52.208;21.192;2024-01-15T02:59:45;98132.32;;;2.23;82.88
39177;BME280;24904;52.208;21.192;2024-01-15T03:04:50;98120.48;;;2.25;82.63
39177;BME280;24904;52.208;21.192;2024-01-15T03:09:55;98113.54;;;2.25;82.59
39177;BME280;24904;52.208;21.192;2024-01-15T03:15:00;98107.73;;;2.25;82.45
39177;BME280;24904;52.208;21.192;2024-01-15T03:20:07;98095.03;;;2.24;82.35
39177;BME280;24904;52.208;21.192;2024-01-15T03:25:12;98084.03;;;2.22;82.34
39177;BME280;24904;52.208;21.192;2024-01-15T03:30:17;98077.38;;;2.22;82.80
39177;BME280;24904;52.208;21.192;2024-01-15T03:35:22;98073.89;;;2.20;82.46
39177;BME280;24904;52.208;21.192;2024-01-15T03:40:32;98066.58;;;2.14;82.92
39177;BME280;24904;52.208;21.192;2024-01-15T03:45:37;98063.51;;;2.07;83.07
39177;BME280;24904;52.208;21.192;2024-01-15T03:50:42;98063.42;;;2.06;83.37
39177;BME280;24904;52.208;21.192;2024-01-15T03:55:48;98054.52;;;2.04;83.08
39177;BME280;24904;52.208;21.192;2024-01-15T04:00:53;98049.48;;;2.02;83.27
39177;BME280;24904;52.208;21.192;2024-01-15T04:05:58;98039.95;;;2.00;82.87
39177;BME280;24904;52.208;21.192;2024-01-15T04:11:03;98036.85;;;1.98;83.37
39177;BME280;24904;52.208;21.192;2024-01-15T04:16:08;98027.84;;;1.95;83.58
39177;BME280;24904;52.208;21.192;2024-01-15T04:21:13;98018.10;;;1.94;83.59
39177;BME280;24904;52.208;21.192;2024-01-15T04:26:18;98006.23;;;1.98;83.69
39177;BME280;24904;52.208;21.192;2024-01-15T04:31:24;97988.21;;;1.98;83.65
39177;BME280;24904;52.208;21.192;2024-01-15T04:36:30;97985.40;;;1.96;83.56
39177;BME280;24904;52.208;21.192;2024-01-15T04:41:35;97977.95;;;1.98;83.41
39177;BME280;24904;52.208;21.192;2024-01-15T04:46:40;97965.89;;;2.00;83.21
39177;BME280;24904;52.208;21.192;2024-01-15T04:51:47;97964.95;;;2.00;83.22
39177;BME280;24904;52.208;21.192;2024-01-15T04:56:52;97965.90;;;2.04;83.26
39177;BME280;24904;52.208;21.192;2024-01-15T05:01:58;97964.04;;;2.01;82.85
39177;BME280;24904;52.208;21.192;2024-01-15T05:07:03;97956.18;;;1.96;83.01
39177;BME280;24904;52.208;21.192;2024-01-15T05:12:08;97943.65;;;1.95;82.78
39177;BME280;24904;52.208;21.192;2024-01-15T05:17:14;97941.00;;;1.94;82.75
39177;BME280;24904;52.208;21.192;2024-01-15T05:22:19;97941.77;;;1.93;82.83
39177;BME280;24904;52.208;21.192;2024-01-15T05:27:24;97939.09;;;1.96;82.57
39177;BME280;24904;52.208;21.192;2024-01-15T05:32:30;97943.02;;;1.93;82.83
39177;BME280;24904;52.208;21.192;2024-01-15T05:37:35;97937.86;;;1.97;82.83
39177;BME280;24904;52.208;21.192;2024-01-15T05:42:40;97932.91;;;1.96;82.68
39177;BME280;24904;52.208;21.192;2024-01-15T05:47:45;97937.89;;;2.01;82.37
39177;BME280;24904;52.208;21.192;2024-01-15T05:52:50;97935.90;;;2.03;82.38
39177;BME280;24904;52.208;21.192;2024-01-15T05:57:56;97934.42;;;2.02;82.29
39177;BME280;24904;52.208;21.192;2024-01-15T06:03:01;97933.34;;;2.03;82.12
39177;BME280;24904;52.208;21.192;2024-01-15T06:08:06;97927.63;;;2.05;82.22
39177;BME280;24904;52.208;21.192;2024-01-15T06:13:11;97926.15;;;2.05;81.96
39177;BME280;24904;52.208;21.192;2024-01-15T06:18:17;97926.23;;;2.07;82.03
39177;BME280;24904;52.208;21.192;2024-01-15T06:23:22;97920.44;;;2.07;81.56
39177;BME280;24904;52.208;21.192;2024-01-15T06:28:27;97913.62;;;2.02;81.86
39177;BME280;24904;52.208;21.192;2024-01-15T06:33:32;97909.60;;;2.02;81.83
39177;BME280;24904;52.208;21.192;2024-01-15T06:38:37;97902.86;;;2.00;81.56
39177;BME280;24904;52.208;21.192;2024-01-15T06:43:42;97899.15;;;1.99;81.54
39177;BME280;24904;52.208;21.192;2024-01-15T06:48:47;97899.52;;;1.97;81.55
39177;BME280;24904;52.208;21.192;2024-01-15T06:53:52;97898.40;;;1.92;81.88
39177;BME280;24904;52.208;21.192;2024-01-15T06:58:57;97900.15;;;1.98;81.72
39177;BME280;24904;52.208;21.192;2024-01-15T07:04:02;97894.60;;;2.01;81.50
39177;BME280;24904;52.208;21.192;2024-01-15T07:09:07;97898.85;;;2.03;81.27
39177;BME280;24904;52.208;21.192;2024-01-15T07:14:12;97899.71;;;2.05;81.05
39177;BME280;24904;52.208;21.192;2024-01-15T07:19:17;97896.68;;;2.02;80.95
39177;BME280;24904;52.208;21.192;2024-01-15T07:24:22;97893.89;;;1.97;80.82
39177;BME280;24904;52.208;21.192;2024-01-15T07:29:27;97894.17;;;1.97;81.21
39177;BME280;24904;52.208;21.192;2024-01-15T07:34:35;97892.70;;;1.96;81.20
39177;BME280;24904;52.208;21.192;2024-01-15T07:39:41;97895.40;;;1.96;81.93
39177;BME280;24904;52.208;21.192;2024-01-15T07:44:46;97894.55;;;1.96;82.12
39177;BME280;24904;52.208;21.192;2024-01-15T07:49:51;97897.81;;;1.97;82.28
39177;BME280;24904;52.208;21.192;2024-01-15T07:54:56;97896.05;;;1.98;82.30
39177;BME280;24904;52.208;21.192;2024-01-15T08:00:03;97904.51;;;1.92;82.13
39177;BME280;24904;52.208;21.192;2024-01-15T08:05:09;97909.55;;;1.82;82.41
39177;BME280;24904;52.208;21.192;2024-01-15T08:10:14;97898.14;;;1.84;82.67
39177;BME280;24904;52.208;21.192;2024-01-15T08:15:19;97892.23;;;1.82;82.39
39177;BME280;24904;52.208;21.192;2024-01-15T08:20:24;97884.61;;;1.85;82.48
39177;BME280;24904;52.208;21.192;2024-01-15T08:25:29;97891.39;;;1.81;82.36
39177;BME280;24904;52.208;21.192;2024-01-15T08:30:34;97891.58;;;1.72;82.45
39177;BME280;24904;52.208;21.192;2024-01-15T08:35:39;97894.92;;;1.66;82.50
39177;BME280;24904;52.208;21.192;2024-01-15T08:40:44;97897.27;;;1.69;82.71
39177;BME280;24904;52.208;21.192;2024-01-15T08:45:49;97893.04;;;1.71;82.39
39177;BME280;24904;52.208;21.192;2024-01-15T08:50:54;97896.76;;;1.73;81.96
39177;BME280;24904;52.208;21.192;2024-01-15T08:56:00;97898.86;;;1.78;81.96
39177;BME280;24904;52.208;21.192;2024-01-15T09:01:05;97901.05;;;1.81;81.67
39177;BME280;24904;52.208;21.192;2024-01-15T09:06:10;97906.65;;;1.85;81.72
39177;BME280;24904;52.208;21.192;2024-01-15T09:11:15;97917.16;;;1.74;82.63
39177;BME280;24904;52.208;21.192;2024-01-15T09:16:20;97924.02;;;1.60;83.34
39177;BME280;24904;52.208;21.192;2024-01-15T09:21:26;97921.00;;;1.57;83.22
39177;BME280;24904;52.208;21.192;2024-01-15T09:26:31;97908.40;;;1.58;83.19
39177;BME280;24904;52.208;21.192;2024-01-15T09:31:36;97908.63;;;1.70;82.86
39177;BME280;24904;52.208;21.192;2024-01-15T09:36:42;97911.70;;;1.79;81.86
39177;BME280;24904;52.208;21.192;2024-01-15T09:41:47;97904.90;;;1.80;81.20
39177;BME280;24904;52.208;21.192;2024-01-15T09:46:53;97897.76;;;1.86;80.72
39177;BME280;24904;52.208;21.192;2024-01-15T09:51:59;97897.86;;;1.91;80.72
39177;BME280;24904;52.208;21.192;2024-01-15T09:57:06;97901.08;;;2.00;79.93
39177;BME280;24904;52.208;21.192;2024-01-15T10:02:12;97894.92;;;2.05;79.50
39177;BME280;24904;52.208;21.192;2024-01-15T10:07:22;97893.30;;;2.08;79.49
39177;BME280;24904;52.208;21.192;2024-01-15T10:12:28;97886.61;;;2.12;78.63
39177;BME280;24904;52.208;21.192;2024-01-15T10:17:33;97885.34;;;2.08;78.68
39177;BME280;24904;52.208;21.192;2024-01-15T10:22:42;97882.33;;;2.10;78.25
39177;BME280;24904;52.208;21.192;2024-01-15T10:28:01;97890.98;;;2.08;77.87
39177;BME280;24904;52.208;21.192;2024-01-15T10:33:06;97889.78;;;2.15;77.65
39177;BME280;24904;52.208;21.192;2024-01-15T10:38:11;97889.16;;;2.14;77.16
39177;BME280;24904;52.208;21.192;2024-01-15T10:43:16;97891.65;;;2.17;77.30
39177;BME280;24904;52.208;21.192;2024-01-15T10:48:22;97888.95;;;2.19;77.25
39177;BME280;24904;52.208;21.192;2024-01-15T10:53:27;97890.96;;;2.22;76.92
39177;BME280;24904;52.208;21.192;2024-01-15T10:58:33;97889.64;;;2.16;76.68
39177;BME280;24904;52.208;21.192;2024-01-15T11:03:38;97891.42;;;2.19;76.66
39177;BME280;24904;52.208;21.192;2024-01-15T11:08:43;97893.13;;;2.22;76.80
39177;BME280;24904;52.208;21.192;2024-01-15T11:13:49;97889.95;;;2.21;76.75
39177;BME280;24904;52.208;21.192;2024-01-15T11:19:06;97889.11;;;2.22;76.69
39177;BME280;24904;52.208;21.192;2024-01-15T11:24:12;97889.65;;;2.23;76.63
39177;BME280;24904;52.208;21.192;2024-01-15T11:29:37;97883.23;;;2.20;76.63
39177;BME280;24904;52.208;21.192;2024-01-15T11:34:59;97881.75;;;2.19;76.29
39177;BME280;24904;52.208;21.192;2024-01-15T11:40:06;97873.03;;;2.24;76.47
39177;BME280;24904;52.208;21.192;2024-01-15T11:45:13;97864.13;;;2.24;76.21
39177;BME280;24904;52.208;21.192;2024-01-15T11:50:19;97857.09;;;2.23;76.13
39177;BME280;24904;52.208;21.192;2024-01-15T11:55:30;97855.19;;;2.28;76.68
39177;BME280;24904;52.208;21.192;2024-01-15T12:00:40;97849.23;;;2.27;76.30
39177;BME280;24904;52.208;21.192;2024-01-15T12:05:46;97850.12;;;2.22;76.33
39177;BME280;24904;52.208;21.192;2024-01-15T12:10:51;97849.27;;;2.19;77.10
39177;BME280;24904;52.208;21.192;2024-01-15T12:15:56;97846.41;;;2.23;77.72
39177;BME280;24904;52.208;21.192;2024-01-15T12:21:01;97849.08;;;2.29;77.89
39177;BME280;24904;52.208;21.192;2024-01-15T12:26:08;97853.77;;;2.20;77.44
39177;BME280;24904;52.208;21.192;2024-01-15T12:31:14;97852.58;;;2.14;77.48
39177;BME280;24904;52.208;21.192;2024-01-15T12:36:23;97844.89;;;2.10;77.77
39177;BME280;24904;52.208;21.192;2024-01-15T12:41:28;97843.50;;;2.09;78.43
39177;BME280;24904;52.208;21.192;2024-01-15T12:46:34;97848.91;;;2.07;78.00
39177;BME280;24904;52.208;21.192;2024-01-15T12:51:39;97848.88;;;1.99;78.55
39177;BME280;24904;52.208;21.192;2024-01-15T12:56:44;97852.40;;;1.91;79.33
39177;BME280;24904;52.208;21.192;2024-01-15T13:01:49;97849.69;;;1.89;80.19
39177;BME280;24904;52.208;21.192;2024-01-15T13:06:54;97854.17;;;1.90;79.51
39177;BME280;24904;52.208;21.192;2024-01-15T13:12:00;97852.85;;;1.88;79.55
39177;BME280;24904;52.208;21.192;2024-01-15T13:17:06;97852.16;;;1.91;78.69
39177;BME280;24904;52.208;21.192;2024-01-15T13:22:11;97862.92;;;1.95;79.16
39177;BME280;24904;52.208;21.192;2024-01-15T13:27:17;97871.14;;;1.83;80.44
39177;BME280;24904;52.208;21.192;2024-01-15T13:32:25;97870.10;;;1.62;81.02
39177;BME280;24904;52.208;21.192;2024-01-15T13:37:30;97865.44;;;1.58;81.51
39177;BME280;24904;52.208;21.192;2024-01-15T13:42:36;97863.75;;;1.61;81.66
39177;BME280;24904;52.208;21.192;2024-01-15T13:47:42;97856.95;;;1.60;81.73
39177;BME280;24904;52.208;21.192;2024-01-15T13:52:48;97854.33;;;1.59;81.64
39177;BME280;24904;52.208;21.192;2024-01-15T13:57:53;97858.52;;;1.65;81.52
39177;BME280;24904;52.208;21.192;2024-01-15T14:02:58;97865.72;;;1.68;81.12
39177;BME280;24904;52.208;21.192;2024-01-15T14:08:03;97870.20;;;1.66;80.64
39177;BME280;24904;52.208;21.192;2024-01-15T14:13:08;97875.75;;;1.64;80.67
39177;BME280;24904;52.208;21.192;2024-01-15T14:18:13;97877.91;;;1.64;80.47
39177;BME280;24904;52.208;21.192;2024-01-15T14:23:18;97876.45;;;1.66;80.33
39177;BME280;24904;52.208;21.192;2024-01-15T14:28:23;97872.16;;;1.69;80.11
39177;BME280;24904;52.208;21.192;2024-01-15T14:33:28;97874.14;;;1.65;80.16
39177;BME280;24904;52.208;21.192;2024-01-15T14:38:33;97877.98;;;1.61;79.79
39177;BME280;24904;52.208;21.192;2024-01-15T14:43:39;97877.84;;;1.65;79.91
39177;BME280;24904;52.208;21.192;2024-01-15T14:48:44;97872.98;;;1.68;79.76
39177;BME280;24904;52.208;21.192;2024-01-15T14:53:49;97863.07;;;1.63;79.70
39177;BME280;24904;52.208;21.192;2024-01-15T14:58:54;97866.82;;;1.69;79.82
39177;BME280;24904;52.208;21.192;2024-01-15T15:03:59;97869.81;;;1.68;79.30
39177;BME280;24904;52.208;21.192;2024-01-15T15:09:05;97867.89;;;1.68;79.19
39177;BME280;24904;52.208;21.192;2024-01-15T15:14:13;97868.20;;;1.69;79.27
39177;BME280;24904;52.208;21.192;2024-01-15T15:19:18;97859.93;;;1.68;79.13
39177;BME280;24904;52.208;21.192;2024-01-15T15:24:23;97860.45;;;1.66;79.19
39177;BME280;24904;52.208;21.192;2024-01-15T15:29:28;97856.02;;;1.71;79.15
39177;BME280;24904;52.208;21.192;2024-01-15T15:34:33;97851.02;;;1.77;78.62
39177;BME280;24904;52.208;21.192;2024-01-15T15:39:38;97851.55;;;1.75;78.24
39177;BME280;24904;52.208;21.192;2024-01-15T15:44:44;97851.23;;;1.72;77.93
39177;BME280;24904;52.208;21.192;2024-01-15T15:49:50;97851.86;;;1.74;78.33
39177;BME280;24904;52.208;21.192;2024-01-15T15:54:55;97848.61;;;1.75;77.73
39177;BME280;24904;52.208;21.192;2024-01-15T16:00:00;97851.30;;;1.70;77.86
39177;BME280;24904;52.208;21.192;2024-01-15T16:05:15;97850.70;;;1.64;77.59
39177;BME280;24904;52.208;21.192;2024-01-15T16:10:20;97849.63;;;1.61;77.69
39177;BME280;24904;52.208;21.192;2024-01-15T16:15:25;97848.54;;;1.61;77.59
39177;BME280;24904;52.208;21.192;2024-01-15T16:20:31;97846.30;;;1.60;77.38
39177;BME280;24904;52.208;21.192;2024-01-15T16:25:36;97842.20;;;1.61;77.44
39177;BME280;24904;52.208;21.192;2024-01-15T16:30:42;97827.20;;;1.61;77.38
39177;BME280;24904;52.208;21.192;2024-01-15T16:35:47;97820.56;;;1.63;77.45
39177;BME280;24904;52.208;21.192;2024-01-15T16:40:53;97819.34;;;1.66;77.37
39177;BME280;24904;52.208;21.192;2024-01-15T16:45:58;97817.70;;;1.61;76.70
39177;BME280;24904;52.208;21.192;2024-01-15T16:51:03;97830.52;;;1.60;76.70
39177;BME280;24904;52.208;21.192;2024-01-15T16:56:09;97830.45;;;1.59;76.64
39177;BME280;24904;52.208;21.192;2024-01-15T17:01:14;97863.39;;;1.53;77.73
39177;BME280;24904;52.208;21.192;2024-01-15T17:06:19;97885.09;;;1.31;79.75
39177;BME280;24904;52.208;21.192;2024-01-15T17:11:24;97903.45;;;0.99;81.24
39177;BME280;24904;52.208;21.192;2024-01-15T17:16:29;97890.73;;;0.85;82.10
39177;BME280;24904;52.208;21.192;2024-01-15T17:21:34;97879.45;;;0.83;82.55
39177;BME280;24904;52.208;21.192;2024-01-15T17:26:39;97873.13;;;0.75;82.80
39177;BME280;24904;52.208;21.192;2024-01-15T17:31:44;97875.89;;;0.66;83.60
39177;BME280;24904;52.208;21.192;2024-01-15T17:36:49;97880.79;;;0.70;83.69
39177;BME280;24904;52.208;21.192;2024-01-15T17:41:54;97891.33;;;0.68;84.07
39177;BME280;24904;52.208;21.192;2024-01-15T17:46:59;97894.06;;;0.55;84.67
39177;BME280;24904;52.208;21.192;2024-01-15T17:52:05;97890.98;;;0.49;84.77
39177;BME280;24904;52.208;21.192;2024-01-15T17:57:10;97894.92;;;0.56;85.07
39177;BME280;24904;52.208;21.192;2024-01-15T18:02:15;97894.83;;;0.62;85.08
39177;BME280;24904;52.208;21.192;2024-01-15T18:07:20;97884.20;;;0.72;85.00
39177;BME280;24904;52.208;21.192;2024-01-15T18:12:26;97876.09;;;0.80;84.65
39177;BME280;24904;52.208;21.192;2024-01-15T18:17:32;97869.20;;;0.85;84.44
39177;BME280;24904;52.208;21.192;2024-01-15T18:22:38;97866.39;;;0.83;84.27
39177;BME280;24904;52.208;21.192;2024-01-15T18:27:43;97873.20;;;0.83;84.33
39177;BME280;24904;52.208;21.192;2024-01-15T18:32:48;97904.91;;;0.74;84.57
39177;BME280;24904;52.208;21.192;2024-01-15T18:37:53;97911.61;;;0.66;84.66
39177;BME280;24904;52.208;21.192;2024-01-15T18:42:58;97907.64;;;0.63;84.84
39177;BME280;24904;52.208;21.192;2024-01-15T18:48:04;97922.23;;;0.64;85.09
39177;BME280;24904;52.208;21.192;2024-01-15T18:53:09;97925.60;;;0.61;85.05
39177;BME280;24904;52.208;21.192;2024-01-15T18:58:14;97926.48;;;0.56;85.00
39177;BME280;24904;52.208;21.192;2024-01-15T19:03:20;97922.20;;;0.55;85.02
39177;BME280;24904;52.208;21.192;2024-01-15T19:08:25;97924.56;;;0.51;84.97
39177;BME280;24904;52.208;21.192;2024-01-15T19:13:30;97935.19;;;0.50;85.00
39177;BME280;24904;52.208;21.192;2024-01-15T19:18:35;97942.47;;;0.52;84.49
39177;BME280;24904;52.208;21.192;2024-01-15T19:23:41;97964.23;;;0.40;83.54
39177;BME280;24904;52.208;21.192;2024-01-15T19:28:47;97973.52;;;0.25;83.07
39177;BME280;24904;52.208;21.192;2024-01-15T19:33:52;97979.08;;;0.08;82.63
39177;BME280;24904;52.208;21.192;2024-01-15T19:38:58;97978.23;;;0.02;82.37
39177;BME280;24904;52.208;21.192;2024-01-15T19:44:05;97974.92;;;-0.08;81.76
39177;BME280;24904;52.208;21.192;2024-01-15T19:49:10;97981.30;;;-0.15;81.55
39177;BME280;24904;52.208;21.192;2024-01-15T19:54:15;97989.82;;;-0.27;81.28
39177;BME280;24904;52.208;21.192;2024-01-15T19:59:21;97991.80;;;-0.33;81.13
39177;BME280;24904;52.208;21.192;2024-01-15T20:04:26;98005.39;;;-0.36;80.86
39177;BME280;24904;52.208;21.192;2024-01-15T20:09:31;98011.83;;;-0.39;80.70
39177;BME280;24904;52.208;21.192;2024-01-15T20:14:37;98015.27;;;-0.44;80.58
39177;BME280;24904;52.208;21.192;2024-01-15T20:19:42;98030.55;;;-0.47;80.09
39177;BME280;24904;52.208;21.192;2024-01-15T20:24:47;98039.48;;;-0.52;79.86
39177;BME280;24904;52.208;21.192;2024-01-15T20:29:52;98037.37;;;-0.58;79.38
39177;BME280;24904;52.208;21.192;2024-01-15T20:34:57;98055.58;;;-0.65;79.13
39177;BME280;24904;52.208;21.192;2024-01-15T20:40:03;98057.27;;;-0.65;79.01
39177;BME280;24904;52.208;21.192;2024-01-15T20:45:10;98068.34;;;-0.66;78.38
39177;BME280;24904;52.208;21.192;2024-01-15T20:50:15;98073.30;;;-0.73;78.30
39177;BME280;24904;52.208;21.192;2024-01-15T20:55:21;98076.56;;;-0.83;77.94
39177;BME280;24904;52.208;21.192;2024-01-15T21:00:26;98078.84;;;-0.89;78.28
39177;BME280;24904;52.208;21.192;2024-01-15T21:05:31;98089.64;;;-0.86;77.67
39177;BME280;24904;52.208;21.192;2024-01-15T21:10:36;98096.44;;;-0.90;77.15
39177;BME280;24904;52.208;21.192;2024-01-15T21:15:41;98101.35;;;-0.91;77.13
39177;BME280;24904;52.208;21.192;2024-01-15T21:20:46;98110.93;;;-0.88;76.94
39177;BME280;24904;52.208;21.192;2024-01-15T21:25:51;98122.85;;;-0.82;76.65
39177;BME280;24904;52.208;21.192;2024-01-15T21:30:56;98128.55;;;-0.81;76.58
39177;BME280;24904;52.208;21.192;2024-01-15T21:36:03;98141.14;;;-0.75;76.68
39177;BME280;24904;52.208;21.192;2024-01-15T21:41:08;98147.23;;;-0.75;76.46
39177;BME280;24904;52.208;21.192;2024-01-15T21:46:13;98156.73;;;-0.72;76.82
39177;BME280;24904;52.208;21.192;2024-01-15T21:51:18;98166.10;;;-0.71;77.17
39177;BME280;24904;52.208;21.192;2024-01-15T21:56:23;98168.30;;;-0.69;77.07
39177;BME280;24904;52.208;21.192;2024-01-15T22:01:28;98180.05;;;-0.71;76.87
39177;BME280;24904;52.208;21.192;2024-01-15T22:06:33;98187.33;;;-0.79;77.21
39177;BME280;24904;52.208;21.192;2024-01-15T22:11:39;98200.00;;;-0.88;77.40
39177;BME280;24904;52.208;21.192;2024-01-15T22:16:44;98202.31;;;-0.99;77.43
39177;BME280;24904;52.208;21.192;2024-01-15T22:21:49;98207.66;;;-1.04;77.85
39177;BME280;24904;52.208;21.192;2024-01-15T22:26:54;98224.64;;;-1.13;77.50
39177;BME280;24904;52.208;21.192;2024-01-15T22:31:59;98236.04;;;-1.19;77.78
39177;BME280;24904;52.208;21.192;2024-01-15T22:37:04;98243.99;;;-1.13;77.80
39177;BME280;24904;52.208;21.192;2024-01-15T22:42:09;98255.33;;;-1.16;77.70
39177;BME280;24904;52.208;21.192;2024-01-15T22:47:14;98266.12;;;-1.18;78.02
39177;BME280;24904;52.208;21.192;2024-01-15T22:52:19;98273.79;;;-1.23;78.26
39177;BME280;24904;52.208;21.192;2024-01-15T22:57:25;98285.02;;;-1.23;78.24
39177;BME280;24904;52.208;21.192;2024-01-15T23:02:30;98296.85;;;-1.27;78.46
39177;BME280;24904;52.208;21.192;2024-01-15T23:07:35;98308.70;;;-1.36;78.03
39177;BME280;24904;52.208;21.192;2024-01-15T23:12:40;98305.13;;;-1.37;77.98
39177;BME280;24904;52.208;21.192;2024-01-15T23:17:45;98308.65;;;-1.38;77.60
39177;BME280;24904;52.208;21.192;2024-01-15T23:22:50;98316.94;;;-1.36;77.14
39177;BME280;24904;52.208;21.192;2024-01-15T23:27:55;98319.14;;;-1.37;76.54
39177;BME280;24904;52.208;21.192;2024-01-15T23:33:00;98328.02;;;-1.35;76.29
39177;BME280;24904;52.208;21.192;2024-01-15T23:38:05;98331.27;;;-1.34;75.73
39177;BME280;24904;52.208;21.192;2024-01-15T23:43:10;98337.73;;;-1.28;75.73
39177;BME280;24904;52.208;21.192;2024-01-15T23:48:15;98346.11;;;-1.26;75.18
39177;BME280;24904;52.208;21.192;2024-01-15T23:53:20;98350.02;;;-1.35;74.36
39177;BME280;24904;52.208;21.192;2024-01-15T23:58:25;98366.16;;;-1.41;74.41
